Time;durP1;ratioP1;P1;durP2;ratioP2;P2;SDS_P1;SDS_P2;PMS_P1;PMS_P2;Temp;Humidity;BMP_temperature;BMP_pressure;BME280_temperature;BME280_humidity;BME280_pressure;Samples;Min_cycle;Max_cycle;Signal;HPM_P1;HPM_P2
2021/12/02 00:02:20;;;;;;;2.40;1.33;;;7.50;99.90;;;;;;5013857;28;20200;-46
2021/12/02 00:04:46;;;;;;;1.40;1.30;;;7.40;99.90;;;;;;5013954;28;20179;-49
2021/12/02 00:07:11;;;;;;;6.13;1.30;;;7.40;99.90;;;;;;5014456;28;20231;-46
2021/12/02 00:09:38;;;;;;;1.03;1.00;;;7.40;99.90;;;;;;5014074;28;20648;-48
2021/12/02 00:12:06;;;;;;;1.07;0.97;;;7.40;99.90;;;;;;5013957;28;20247;-50
2021/12/02 00:14:40;;;;;;;1.10;1.00;;;7.40;99.90;;;;;;5013945;28;20183;-48
2021/12/02 00:17:16;;;;;;;1.27;1.17;;;7.40;99.90;;;;;;5014047;28;20168;-46
2021/12/02 00:22:28;;;;;;;2.70;1.20;;;7.40;99.90;;;;;;5013667;28;20695;-45
2021/12/02 00:25:03;;;;;;;1.10;1.10;;;7.40;99.90;;;;;;5014168;28;20164;-51
2021/12/02 00:27:29;;;;;;;1.90;1.40;;;7.40;99.90;;;;;;5013918;28;20167;-45
2021/12/02 00:29:57;;;;;;;1.90;1.10;;;7.30;99.90;;;;;;5013789;28;20172;-43
2021/12/02 00:32:27;;;;;;;1.50;1.13;;;7.30;99.90;;;;;;5013798;28;20200;-48
2021/12/02 00:34:53;;;;;;;2.77;1.30;;;7.40;99.90;;;;;;5013375;28;20200;-52
2021/12/02 00:37:19;;;;;;;1.20;1.10;;;7.30;99.90;;;;;;5013688;28;20560;-51
2021/12/02 00:39:46;;;;;;;0.83;0.80;;;7.40;99.90;;;;;;5013658;28;20176;-46
2021/12/02 00:42:13;;;;;;;1.30;1.20;;;7.40;99.90;;;;;;5013515;28;20262;-48
2021/12/02 00:44:39;;;;;;;1.50;1.40;;;7.40;99.90;;;;;;5012994;28;20202;-54
2021/12/02 00:47:05;;;;;;;1.00;1.00;;;7.40;99.90;;;;;;5013688;28;20228;-48
2021/12/02 00:49:30;;;;;;;1.63;1.40;;;7.40;99.90;;;;;;5013238;28;20168;-49
2021/12/02 00:52:00;;;;;;;3.53;1.30;;;7.50;99.90;;;;;;5013796;28;20172;-42
2021/12/02 00:54:26;;;;;;;1.33;1.20;;;7.50;99.90;;;;;;5013178;28;20682;-44
2021/12/02 00:56:53;;;;;;;1.03;0.80;;;7.50;99.90;;;;;;5013106;28;20168;-46
2021/12/02 00:59:21;;;;;;;1.30;0.93;;;7.40;99.90;;;;;;5013426;28;20663;-45
2021/12/02 01:01:48;;;;;;;1.00;1.00;;;7.40;99.90;;;;;;5013181;28;20564;-44
2021/12/02 01:04:16;;;;;;;0.80;0.80;;;7.40;99.90;;;;;;5013000;28;20197;-44
2021/12/02 01:06:42;;;;;;;1.10;1.00;;;7.40;99.90;;;;;;5012875;28;20255;-45
2021/12/02 01:09:11;;;;;;;1.10;1.00;;;7.40;99.90;;;;;;5012980;28;20652;-43
2021/12/02 01:11:37;;;;;;;0.70;0.70;;;7.40;99.90;;;;;;5012147;28;20179;-43
2021/12/02 01:14:04;;;;;;;1.20;0.80;;;7.40;99.90;;;;;;5012994;28;20283;-45
2021/12/02 01:16:30;;;;;;;1.00;0.80;;;7.40;99.90;;;;;;5012618;28;20177;-46
2021/12/02 01:18:55;;;;;;;1.07;1.07;;;7.40;99.90;;;;;;5012731;28;20729;-45
2021/12/02 01:21:23;;;;;;;0.80;0.80;;;7.40;99.90;;;;;;5012716;28;20228;-44
2021/12/02 01:23:51;;;;;;;0.70;0.70;;;7.40;99.90;;;;;;5012847;28;20622;-43
2021/12/02 01:26:19;;;;;;;0.73;0.70;;;7.40;99.90;;;;;;5012371;28;20251;-44
2021/12/02 01:28:48;;;;;;;0.50;0.50;;;7.40;99.90;;;;;;5012748;28;20172;-44
2021/12/02 01:31:13;;;;;;;2.63;0.93;;;7.40;99.90;;;;;;5012613;28;20552;-45
2021/12/02 01:33:40;;;;;;;0.77;0.57;;;7.40;99.90;;;;;;5012586;28;20184;-44
2021/12/02 01:36:06;;;;;;;0.60;0.60;;;7.40;99.90;;;;;;5012148;28;20172;-44
2021/12/02 01:38:33;;;;;;;0.80;0.80;;;7.40;99.90;;;;;;5012598;28;20172;-43
2021/12/02 01:41:01;;;;;;;0.63;0.63;;;7.30;99.90;;;;;;5012493;28;20540;-48
2021/12/02 01:43:42;;;;;;;0.60;0.60;;;7.40;99.90;;;;;;5012223;28;20211;-45
2021/12/02 01:46:07;;;;;;;0.80;0.80;;;7.30;99.90;;;;;;5012258;28;20166;-45
2021/12/02 01:48:38;;;;;;;0.70;0.70;;;7.30;99.90;;;;;;5012273;28;20167;-43
2021/12/02 01:51:06;;;;;;;0.97;0.83;;;7.30;99.90;;;;;;5012733;28;20172;-45
2021/12/02 01:53:38;;;;;;;0.80;0.63;;;7.30;99.90;;;;;;5012090;28;20303;-45
2021/12/02 01:56:16;;;;;;;0.53;0.53;;;7.30;99.90;;;;;;5012052;28;20173;-48
2021/12/02 01:58:50;;;;;;;0.70;0.63;;;7.30;99.90;;;;;;5012163;28;20590;-44
2021/12/02 02:01:25;;;;;;;0.63;0.60;;;7.30;99.90;;;;;;5012121;28;20188;-46
2021/12/02 02:03:53;;;;;;;0.50;0.50;;;7.30;99.90;;;;;;5012044;28;20199;-42
2021/12/02 02:06:32;;;;;;;0.90;0.70;;;7.30;99.90;;;;;;5011865;28;20172;-48
2021/12/02 02:08:59;;;;;;;0.93;0.80;;;7.30;99.90;;;;;;5012298;28;20706;-44
2021/12/02 02:11:29;;;;;;;0.63;0.60;;;7.30;99.90;;;;;;5012045;28;20196;-52
2021/12/02 02:13:56;;;;;;;0.67;0.67;;;7.30;99.90;;;;;;5012147;28;20196;-48
2021/12/02 02:16:22;;;;;;;1.70;0.83;;;7.30;99.90;;;;;;5008388;28;20267;-47
2021/12/02 02:18:48;;;;;;;0.57;0.57;;;7.30;99.90;;;;;;5011278;28;20222;-50
2021/12/02 02:21:16;;;;;;;0.73;0.60;;;7.30;99.90;;;;;;5011606;28;20197;-50
2021/12/02 02:23:49;;;;;;;0.70;0.60;;;7.30;99.90;;;;;;5011861;28;20222;-46
2021/12/02 02:26:22;;;;;;;2.77;0.80;;;7.30;99.90;;;;;;5011829;28;20255;-48
2021/12/02 02:28:47;;;;;;;0.67;0.67;;;7.30;99.90;;;;;;4994305;28;20639;-47
2021/12/02 02:31:13;;;;;;;0.80;0.80;;;7.30;99.90;;;;;;5011853;28;20226;-49
2021/12/02 02:33:39;;;;;;;0.60;0.50;;;7.30;99.90;;;;;;4994335;28;20200;-51
2021/12/02 02:36:06;;;;;;;0.90;0.70;;;7.30;99.90;;;;;;5011893;28;20191;-49
2021/12/02 02:38:33;;;;;;;0.50;0.50;;;7.20;99.90;;;;;;5012055;28;20208;-46
2021/12/02 02:41:01;;;;;;;0.63;0.57;;;7.20;99.90;;;;;;5011769;28;20192;-43
2021/12/02 02:43:27;;;;;;;0.60;0.60;;;7.20;99.90;;;;;;5011725;28;20230;-44
2021/12/02 02:45:53;;;;;;;0.80;0.80;;;7.20;99.90;;;;;;4994018;28;20175;-47
2021/12/02 02:48:19;;;;;;;0.60;0.60;;;7.20;99.90;;;;;;5011723;28;20172;-49
2021/12/02 02:50:44;;;;;;;0.50;0.50;;;7.20;99.90;;;;;;5011587;28;20656;-46
2021/12/02 02:53:21;;;;;;;0.60;0.60;;;7.20;99.90;;;;;;5011690;28;20211;-44
2021/12/02 03:08:39;;;;;;;0.80;0.70;;;7.00;99.90;;;;;;5011703;28;20173;-45
2021/12/02 03:11:06;;;;;;;0.70;0.70;;;7.00;99.90;;;;;;5011480;28;20195;-46
2021/12/02 03:13:47;;;;;;;0.50;0.50;;;7.00;99.90;;;;;;5011390;28;20211;-46
2021/12/02 03:18:57;;;;;;;0.50;0.50;;;7.00;99.90;;;;;;5011785;28;20244;-43
2021/12/02 03:21:23;;;;;;;0.63;0.63;;;7.00;99.90;;;;;;5011240;28;20278;-44
2021/12/02 03:23:51;;;;;;;0.70;0.70;;;7.00;99.90;;;;;;5011354;28;20239;-44
2021/12/02 03:26:18;;;;;;;0.87;0.63;;;7.00;99.90;;;;;;5011070;28;20165;-43
2021/12/02 03:28:45;;;;;;;0.87;0.60;;;7.00;99.90;;;;;;5011328;28;20312;-49
2021/12/02 03:31:11;;;;;;;1.00;0.70;;;7.00;99.90;;;;;;5011282;28;20226;-44
2021/12/02 03:33:36;;;;;;;0.50;0.50;;;7.00;99.90;;;;;;5012040;28;20196;-46
2021/12/02 03:36:02;;;;;;;0.60;0.60;;;7.00;99.90;;;;;;4997148;28;20680;-47
2021/12/02 03:38:28;;;;;;;0.70;0.70;;;7.00;99.90;;;;;;5014609;28;20211;-43
2021/12/02 03:40:53;;;;;;;0.50;0.50;;;7.00;99.90;;;;;;5014724;28;20183;-45
2021/12/02 03:43:19;;;;;;;0.67;0.60;;;7.00;99.90;;;;;;5043589;23;20642;-55
2021/12/02 03:45:45;;;;;;;0.97;0.70;;;7.10;99.90;;;;;;5045818;28;20233;-55
2021/12/02 03:48:10;;;;;;;0.80;0.80;;;7.10;99.90;;;;;;5042330;28;20175;-56
2021/12/02 03:50:36;;;;;;;0.97;0.70;;;7.00;99.90;;;;;;5049408;28;20175;-57
2021/12/02 03:53:01;;;;;;;0.70;0.70;;;7.00;99.90;;;;;;5053753;28;20206;-56
2021/12/02 03:55:27;;;;;;;1.03;0.80;;;7.00;99.90;;;;;;5053268;28;20604;-54
2021/12/02 03:57:52;;;;;;;0.50;0.50;;;7.00;99.90;;;;;;5053896;28;20163;-56
2021/12/02 04:00:18;;;;;;;0.87;0.73;;;7.00;99.90;;;;;;5053955;28;20207;-56
2021/12/02 04:02:44;;;;;;;0.40;0.40;;;7.00;99.90;;;;;;5053867;28;20209;-55
2021/12/02 04:05:09;;;;;;;0.50;0.50;;;7.00;99.90;;;;;;5053310;28;20515;-56
2021/12/02 04:07:35;;;;;;;0.60;0.60;;;6.90;99.90;;;;;;5053915;28;20544;-57
2021/12/02 04:10:01;;;;;;;0.57;0.57;;;6.90;99.90;;;;;;5053773;28;20176;-54
2021/12/02 04:17:19;;;;;;;0.50;0.43;;;6.90;99.90;;;;;;5053924;28;20174;-53
2021/12/02 04:19:45;;;;;;;0.40;0.40;;;6.90;99.90;;;;;;5053434;28;20167;-55
2021/12/02 04:22:10;;;;;;;0.60;0.60;;;6.90;99.90;;;;;;5053497;28;20212;-56
2021/12/02 04:24:36;;;;;;;0.50;0.50;;;6.90;99.90;;;;;;5053169;28;20195;-55
2021/12/02 04:27:02;;;;;;;0.50;0.50;;;6.80;99.90;;;;;;5053529;28;20175;-57
2021/12/02 04:29:27;;;;;;;0.43;0.43;;;6.80;99.90;;;;;;5053450;28;20171;-56
2021/12/02 04:31:53;;;;;;;0.70;0.70;;;6.80;99.90;;;;;;5053413;28;20817;-56
2021/12/02 04:34:19;;;;;;;0.50;0.50;;;6.70;99.90;;;;;;5053449;28;20187;-56
2021/12/02 04:36:44;;;;;;;0.70;0.70;;;6.70;99.90;;;;;;5053023;28;20181;-56
2021/12/02 04:39:10;;;;;;;0.47;0.43;;;6.60;99.90;;;;;;5053354;28;20182;-54
2021/12/02 04:41:36;;;;;;;2.57;0.67;;;6.60;99.90;;;;;;5053158;28;20252;-54
2021/12/02 04:44:02;;;;;;;0.57;0.57;;;6.60;99.90;;;;;;5053030;28;20210;-56
2021/12/02 04:46:28;;;;;;;1.60;0.70;;;6.60;99.90;;;;;;5052897;28;20171;-56
2021/12/02 04:48:54;;;;;;;1.33;0.77;;;6.60;99.90;;;;;;5053072;28;20584;-56
2021/12/02 04:51:19;;;;;;;0.50;0.50;;;6.50;99.90;;;;;;5052975;28;20557;-56
2021/12/02 04:53:45;;;;;;;0.80;0.80;;;6.50;99.90;;;;;;5052731;28;20213;-54
2021/12/02 04:56:10;;;;;;;0.50;0.50;;;6.50;99.90;;;;;;5052477;28;20258;-54
2021/12/02 04:58:36;;;;;;;0.50;0.50;;;6.50;99.90;;;;;;5052863;28;20206;-56
2021/12/02 05:01:02;;;;;;;0.57;0.57;;;6.40;99.90;;;;;;5052825;28;20198;-56
2021/12/02 05:03:27;;;;;;;0.80;0.80;;;6.50;99.90;;;;;;5052823;28;20649;-56
2021/12/02 05:05:53;;;;;;;0.40;0.40;;;6.40;99.90;;;;;;5052746;28;20171;-56
2021/12/02 05:08:18;;;;;;;0.70;0.70;;;6.40;99.90;;;;;;5052593;28;20242;-56
2021/12/02 05:10:44;;;;;;;1.00;0.90;;;6.40;99.90;;;;;;5052761;28;20171;-55
2021/12/02 05:13:10;;;;;;;1.07;0.70;;;6.40;99.90;;;;;;5052631;28;20305;-54
2021/12/02 05:15:35;;;;;;;2.23;0.83;;;6.40;99.90;;;;;;5052398;28;20597;-54
2021/12/02 05:18:01;;;;;;;0.70;0.70;;;6.40;99.90;;;;;;5052603;28;20189;-56
2021/12/02 05:20:26;;;;;;;0.60;0.60;;;6.40;99.90;;;;;;5052514;28;20252;-57
2021/12/02 05:22:52;;;;;;;0.60;0.60;;;6.30;99.90;;;;;;5052434;28;20205;-56
2021/12/02 05:25:17;;;;;;;0.73;0.70;;;6.20;99.90;;;;;;5052002;28;20187;-56
2021/12/02 05:27:43;;;;;;;0.87;0.87;;;6.10;99.90;;;;;;5052352;28;20163;-56
2021/12/02 05:30:09;;;;;;;2.87;1.10;;;6.00;99.90;;;;;;5052430;28;20167;-56
2021/12/02 05:32:35;;;;;;;0.93;0.80;;;6.00;99.90;;;;;;5052231;28;20240;-55
2021/12/02 05:35:01;;;;;;;1.30;1.20;;;6.00;99.90;;;;;;5052021;28;20199;-56
2021/12/02 05:37:27;;;;;;;1.07;1.00;;;6.00;99.90;;;;;;5052162;28;20179;-56
2021/12/02 05:39:53;;;;;;;0.90;0.90;;;5.90;99.90;;;;;;5052099;28;20266;-53
2021/12/02 05:42:19;;;;;;;1.33;0.90;;;5.90;99.90;;;;;;5052092;28;20195;-56
2021/12/02 05:44:45;;;;;;;1.10;1.00;;;5.80;99.90;;;;;;5051518;28;20214;-56
2021/12/02 05:47:11;;;;;;;1.77;1.07;;;5.90;99.90;;;;;;5052184;28;20190;-56
2021/12/02 05:49:37;;;;;;;0.93;0.93;;;5.80;99.90;;;;;;5034067;28;20214;-56
2021/12/02 05:52:03;;;;;;;1.57;1.23;;;5.80;99.90;;;;;;5052103;28;20178;-56
2021/12/02 05:54:28;;;;;;;1.83;1.10;;;5.80;99.90;;;;;;5051727;28;20198;-53
2021/12/02 05:56:54;;;;;;;0.70;0.70;;;5.90;99.90;;;;;;5051104;28;20642;-54
2021/12/02 05:59:20;;;;;;;1.60;0.90;;;6.00;99.90;;;;;;5051868;28;20171;-52
2021/12/02 06:01:45;;;;;;;1.57;1.03;;;6.10;99.90;;;;;;5051649;28;20195;-56
2021/12/02 06:04:11;;;;;;;1.17;0.80;;;6.10;99.90;;;;;;5051511;28;20666;-55
2021/12/02 06:06:37;;;;;;;0.80;0.80;;;6.10;99.90;;;;;;5051605;28;20202;-56
2021/12/02 06:09:04;;;;;;;0.90;0.90;;;6.10;99.90;;;;;;5051673;28;20171;-56
2021/12/02 06:11:31;;;;;;;1.37;0.90;;;6.10;99.90;;;;;;5051716;28;20263;-55
2021/12/02 06:13:56;;;;;;;1.03;1.00;;;6.00;99.90;;;;;;5051730;28;20828;-56
2021/12/02 06:16:22;;;;;;;1.23;1.00;;;6.00;99.90;;;;;;5051242;28;20218;-56
2021/12/02 06:18:47;;;;;;;1.20;1.10;;;5.90;99.90;;;;;;5051761;28;20182;-56
2021/12/02 06:21:13;;;;;;;1.23;1.10;;;5.80;99.90;;;;;;5051561;28;20195;-56
2021/12/02 06:23:41;;;;;;;1.50;1.20;;;5.80;99.90;;;;;;5051464;28;20240;-56
2021/12/02 06:26:07;;;;;;;2.13;1.30;;;5.80;99.90;;;;;;5051261;28;20167;-55
2021/12/02 06:28:33;;;;;;;1.37;1.20;;;5.80;99.90;;;;;;5051566;28;20171;-57
2021/12/02 06:31:02;;;;;;;1.77;1.60;;;5.90;99.90;;;;;;5051295;28;20664;-56
2021/12/02 06:33:28;;;;;;;1.23;1.13;;;6.00;99.90;;;;;;5051525;28;20723;-55
2021/12/02 06:35:53;;;;;;;1.73;1.50;;;6.00;99.90;;;;;;5051118;28;20175;-56
2021/12/02 06:38:19;;;;;;;1.50;1.40;;;6.00;99.90;;;;;;5051502;28;20179;-56
2021/12/02 06:40:45;;;;;;;2.43;1.93;;;6.00;99.90;;;;;;5051436;28;20171;-55
2021/12/02 06:43:14;;;;;;;2.57;1.60;;;6.00;99.90;;;;;;5051253;28;20547;-57
2021/12/02 06:45:39;;;;;;;4.60;2.03;;;5.90;99.90;;;;;;5051198;28;20585;-56
2021/12/02 06:48:05;;;;;;;2.07;1.87;;;5.90;99.90;;;;;;5051174;28;20179;-56
2021/12/02 06:50:33;;;;;;;2.60;1.97;;;5.90;99.90;;;;;;5051448;28;20202;-54
2021/12/02 06:52:59;;;;;;;2.43;1.90;;;5.90;99.90;;;;;;5061436;28;20179;-50
2021/12/02 06:55:24;;;;;;;2.30;2.10;;;5.80;99.90;;;;;;5040728;28;20194;-56
2021/12/02 06:57:50;;;;;;;1.97;1.87;;;5.90;99.90;;;;;;5050679;28;20183;-55
2021/12/02 07:00:18;;;;;;;2.50;1.80;;;5.90;99.90;;;;;;5050826;28;20226;-57
2021/12/02 07:02:44;;;;;;;3.23;2.03;;;5.90;99.90;;;;;;5047527;28;20207;-50
2021/12/02 07:05:12;;;;;;;2.07;1.70;;;5.90;99.90;;;;;;5030732;28;20613;-53
2021/12/02 07:07:38;;;;;;;1.83;1.70;;;5.90;99.90;;;;;;5031161;28;20202;-56
2021/12/02 07:10:06;;;;;;;2.27;1.93;;;5.90;99.90;;;;;;5035490;28;20168;-56
2021/12/02 07:12:33;;;;;;;2.07;1.87;;;5.90;99.90;;;;;;5054505;28;20187;-48
2021/12/02 07:15:06;;;;;;;3.47;2.00;;;5.90;99.90;;;;;;5052916;28;20268;-56
2021/12/02 07:17:32;;;;;;;2.30;2.10;;;5.90;99.90;;;;;;5053556;28;20171;-56
2021/12/02 07:20:02;;;;;;;2.13;1.80;;;6.00;99.90;;;;;;5053716;28;20205;-56
2021/12/02 07:22:28;;;;;;;2.07;1.87;;;5.90;99.90;;;;;;5054249;28;20198;-54
2021/12/02 07:24:53;;;;;;;2.00;1.80;;;6.00;99.90;;;;;;5054280;28;20268;-55
2021/12/02 07:27:19;;;;;;;1.43;1.30;;;6.00;99.90;;;;;;5054328;28;20618;-55
2021/12/02 07:29:45;;;;;;;1.70;1.47;;;6.00;99.90;;;;;;5053436;28;20175;-55
2021/12/02 07:32:11;;;;;;;1.40;1.30;;;6.00;99.90;;;;;;5054441;28;20598;-54
2021/12/02 07:34:42;;;;;;;2.50;1.37;;;6.00;99.90;;;;;;5054336;28;20234;-56
2021/12/02 07:37:08;;;;;;;2.03;1.50;;;6.00;99.90;;;;;;5053784;28;20179;-57
2021/12/02 07:39:33;;;;;;;1.50;1.40;;;6.00;99.90;;;;;;5054430;28;20701;-55
2021/12/02 07:41:59;;;;;;;2.33;1.43;;;6.00;99.90;;;;;;5054328;28;20281;-57
2021/12/02 07:44:25;;;;;;;2.37;1.23;;;6.00;99.90;;;;;;5054095;28;20206;-57
2021/12/02 07:46:51;;;;;;;2.37;1.50;;;6.00;99.90;;;;;;5053921;28;20172;-57
2021/12/02 07:49:17;;;;;;;4.67;1.33;;;6.00;99.90;;;;;;5054224;28;20186;-55
2021/12/02 07:51:44;;;;;;;2.13;1.40;;;6.00;99.90;;;;;;5054265;28;20209;-55
2021/12/02 07:54:12;;;;;;;2.80;1.50;;;6.10;99.90;;;;;;5053740;28;20312;-57
2021/12/02 07:56:38;;;;;;;1.67;1.20;;;6.10;99.90;;;;;;5053809;28;20183;-51
2021/12/02 07:59:05;;;;;;;3.07;1.33;;;6.20;99.90;;;;;;5053839;28;20179;-56
2021/12/02 08:01:34;;;;;;;2.30;1.20;;;6.20;99.90;;;;;;5054006;28;20198;-49
2021/12/02 08:04:00;;;;;;;1.90;1.30;;;6.30;99.90;;;;;;5054030;28;20198;-56
2021/12/02 08:06:26;;;;;;;1.50;1.10;;;6.30;99.90;;;;;;5053932;28;20171;-53
2021/12/02 08:08:51;;;;;;;2.60;1.30;;;6.30;99.90;;;;;;5054046;28;20168;-56
2021/12/02 08:11:17;;;;;;;1.67;1.20;;;6.40;99.90;;;;;;5053965;28;20179;-56
2021/12/02 08:13:43;;;;;;;1.23;1.00;;;6.50;99.90;;;;;;5053724;28;20729;-57
2021/12/02 08:16:08;;;;;;;1.67;1.10;;;6.50;99.90;;;;;;5053528;28;20634;-56
2021/12/02 08:18:35;;;;;;;1.53;1.23;;;6.60;99.90;;;;;;5048520;28;20219;-54
2021/12/02 08:21:01;;;;;;;1.77;1.00;;;6.60;99.90;;;;;;5053120;28;20179;-55
2021/12/02 08:23:27;;;;;;;1.50;1.40;;;6.60;99.90;;;;;;5053527;28;20213;-57
2021/12/02 08:25:54;;;;;;;6.40;3.70;;;6.70;99.90;;;;;;5053422;28;20195;-52
2021/12/02 08:28:20;;;;;;;2.00;1.53;;;6.80;99.90;;;;;;5053624;28;20175;-60
2021/12/02 08:30:45;;;;;;;2.40;1.10;;;6.80;99.90;;;;;;5053615;28;20175;-59
2021/12/02 08:33:14;;;;;;;2.30;1.03;;;6.90;99.90;;;;;;5053367;28;20183;-59
2021/12/02 08:35:40;;;;;;;1.13;1.03;;;7.00;99.90;;;;;;5053232;28;20171;-57
2021/12/02 08:38:10;;;;;;;0.80;0.80;;;7.10;99.90;;;;;;5053373;28;20179;-57
2021/12/02 08:40:37;;;;;;;0.80;0.80;;;7.10;99.90;;;;;;5053495;28;20194;-59
2021/12/02 08:43:10;;;;;;;1.33;0.90;;;7.20;99.90;;;;;;5052909;28;20214;-58
2021/12/02 08:45:37;;;;;;;1.63;1.10;;;7.20;99.90;;;;;;5053049;28;20634;-59
2021/12/02 08:48:04;;;;;;;1.00;0.93;;;7.30;99.90;;;;;;5053323;28;20572;-56
2021/12/02 08:50:30;;;;;;;1.83;1.50;;;7.30;99.90;;;;;;5053220;28;20172;-58
2021/12/02 08:52:57;;;;;;;5.33;4.50;;;7.40;99.90;;;;;;5052975;28;20171;-57
2021/12/02 08:55:24;;;;;;;2.80;1.50;;;7.40;99.90;;;;;;5052862;28;20638;-59
2021/12/02 08:57:51;;;;;;;1.03;0.90;;;7.40;99.90;;;;;;5053089;28;20878;-58
2021/12/02 09:00:20;;;;;;;1.10;1.00;;;7.50;99.90;;;;;;5053002;28;20232;-58
2021/12/02 09:02:46;;;;;;;1.47;1.10;;;7.60;99.90;;;;;;5052866;28;20678;-56
2021/12/02 09:05:12;;;;;;;0.97;0.80;;;7.60;99.90;;;;;;5052717;28;20547;-58
2021/12/02 09:07:37;;;;;;;1.10;0.70;;;7.70;99.90;;;;;;5035037;28;20281;-58
2021/12/02 09:10:05;;;;;;;1.20;0.83;;;7.80;99.90;;;;;;5052864;28;20229;-58
2021/12/02 09:12:31;;;;;;;1.80;1.00;;;7.80;99.90;;;;;;5052603;28;20254;-58
2021/12/02 09:14:57;;;;;;;0.80;0.80;;;7.90;99.90;;;;;;5052335;28;20707;-58
2021/12/02 09:17:22;;;;;;;0.97;0.87;;;8.00;99.90;;;;;;5052687;28;20171;-59
2021/12/02 09:19:48;;;;;;;2.00;1.00;;;8.00;99.90;;;;;;5052706;28;20637;-54
2021/12/02 09:22:14;;;;;;;0.77;0.77;;;8.10;99.90;;;;;;5052452;28;20273;-52
2021/12/02 09:24:39;;;;;;;2.23;0.97;;;8.20;99.90;;;;;;5052163;28;20198;-56
2021/12/02 09:27:05;;;;;;;2.10;1.13;;;8.30;99.90;;;;;;5052536;28;20171;-56
2021/12/02 09:29:31;;;;;;;0.70;0.70;;;8.30;99.90;;;;;;5052490;28;20179;-53
2021/12/02 09:31:56;;;;;;;2.17;1.00;;;8.40;99.90;;;;;;5051707;28;20194;-56
2021/12/02 09:34:22;;;;;;;2.83;1.00;;;8.50;99.90;;;;;;5052187;28;20195;-57
2021/12/02 09:36:48;;;;;;;1.63;1.00;;;8.60;99.90;;;;;;5052140;28;20178;-56
2021/12/02 09:39:15;;;;;;;1.33;0.63;;;8.90;99.90;;;;;;5052275;28;20167;-49
2021/12/02 09:41:43;;;;;;;1.80;1.00;;;9.10;99.90;;;;;;5052158;28;20261;-52
2021/12/02 09:44:09;;;;;;;1.53;0.87;;;9.40;99.90;;;;;;5063511;23;20676;-49
2021/12/02 09:46:37;;;;;;;1.03;0.80;;;9.70;99.90;;;;;;5036671;28;20795;-50
2021/12/02 09:49:03;;;;;;;1.93;0.90;;;10.00;99.90;;;;;;5047104;28;20579;-49
2021/12/02 09:51:38;;;;;;;0.87;0.60;;;10.50;99.90;;;;;;5051827;28;20653;-48
2021/12/02 09:54:26;;;;;;;2.13;0.80;;;11.00;99.90;;;;;;5055332;28;20281;-49
2021/12/02 09:56:53;;;;;;;0.90;0.70;;;11.40;99.90;;;;;;5071114;28;20255;-50
2021/12/02 10:02:11;;;;;;;1.27;0.90;;;12.20;99.90;;;;;;5065919;28;20323;-53
2021/12/02 10:04:43;;;;;;;1.80;0.83;;;12.50;99.90;;;;;;5071463;28;20194;-46
2021/12/02 10:07:20;;;;;;;1.83;1.20;;;12.50;99.90;;;;;;5071847;28;20171;-53
2021/12/02 10:10:17;;;;;;;2.53;1.10;;;12.10;99.90;;;;;;5071819;28;20541;-48
2021/12/02 10:13:31;;;;;;;1.13;1.00;;;11.70;99.90;;;;;;5071641;28;20664;-50
2021/12/02 10:16:33;;;;;;;1.57;1.07;;;11.30;99.90;;;;;;5071592;28;20522;-49
2021/12/02 10:19:06;;;;;;;1.00;0.80;;;10.90;99.90;;;;;;5066706;28;20173;-47
2021/12/02 10:21:46;;;;;;;1.23;1.00;;;10.70;99.90;;;;;;5071618;28;20208;-48
2021/12/02 10:24:14;;;;;;;1.37;0.97;;;10.70;99.90;;;;;;5071693;28;20545;-45
2021/12/02 10:26:57;;;;;;;2.80;1.00;;;10.90;99.90;;;;;;5071376;28;20261;-52
2021/12/02 10:29:27;;;;;;;1.53;0.97;;;11.20;99.90;;;;;;5071632;28;20252;-53
2021/12/02 10:32:17;;;;;;;1.93;1.10;;;11.20;99.90;;;;;;5071533;28;20305;-51
2021/12/02 10:34:57;;;;;;;1.17;0.90;;;11.00;99.90;;;;;;5071222;28;20189;-46
2021/12/02 10:37:29;;;;;;;1.27;0.90;;;10.70;99.90;;;;;;5071668;28;20572;-49
2021/12/02 10:40:27;;;;;;;2.17;1.03;;;10.50;99.90;;;;;;5071419;28;20171;-49
2021/12/02 10:42:53;;;;;;;2.13;1.10;;;10.20;99.90;;;;;;4971773;28;20197;-51
2021/12/02 10:45:27;;;;;;;1.50;0.90;;;9.90;99.90;;;;;;4974299;28;20221;-49
2021/12/02 10:47:55;;;;;;;4.73;1.40;;;9.70;99.90;;;;;;4974522;28;20192;-47
2021/12/02 10:50:23;;;;;;;1.63;1.00;;;9.40;99.90;;;;;;4974454;28;20310;-46
2021/12/02 10:52:51;;;;;;;1.03;0.83;;;9.20;99.90;;;;;;4970113;28;20755;-47
2021/12/02 10:55:22;;;;;;;2.87;1.20;;;9.00;99.90;;;;;;4973950;28;20190;-47
2021/12/02 10:57:50;;;;;;;1.73;1.20;;;8.80;99.90;;;;;;4974371;28;20174;-44
2021/12/02 11:00:20;;;;;;;1.90;0.90;;;8.60;99.90;;;;;;4974247;28;20216;-48
2021/12/02 11:02:49;;;;;;;1.77;1.10;;;8.50;99.90;;;;;;4974033;28;20182;-46
2021/12/02 11:05:30;;;;;;;3.10;1.10;;;8.30;99.90;;;;;;4973837;28;20718;-46
2021/12/02 11:07:56;;;;;;;1.87;1.00;;;8.10;99.90;;;;;;4974102;28;20689;-47
2021/12/02 11:10:24;;;;;;;1.97;1.10;;;8.00;99.90;;;;;;4974075;28;20181;-46
2021/12/02 11:12:54;;;;;;;1.90;0.90;;;7.90;99.90;;;;;;4973877;28;20369;-47
2021/12/02 11:15:25;;;;;;;1.27;1.17;;;7.90;99.90;;;;;;4973730;28;20201;-44
2021/12/02 11:17:57;;;;;;;1.83;1.07;;;8.00;99.90;;;;;;4974090;28;20184;-47
2021/12/02 11:20:50;;;;;;;2.50;1.13;;;8.30;99.90;;;;;;5070698;28;20178;-46
2021/12/02 11:23:29;;;;;;;1.57;1.13;;;8.50;99.90;;;;;;5074964;28;20250;-48
2021/12/02 11:26:05;;;;;;;1.73;0.80;;;8.70;99.90;;;;;;5074407;28;20201;-47
2021/12/02 11:28:33;;;;;;;1.33;0.90;;;9.10;99.90;;;;;;5074374;28;20222;-48
2021/12/02 11:31:10;;;;;;;1.63;0.90;;;9.50;99.90;;;;;;5074261;28;20175;-48
2021/12/02 11:33:39;;;;;;;1.43;1.00;;;9.80;99.90;;;;;;5074663;28;20757;-47
2021/12/02 11:36:07;;;;;;;1.93;1.40;;;10.00;99.90;;;;;;5073987;28;20170;-47
2021/12/02 11:38:33;;;;;;;1.97;1.00;;;10.10;99.90;;;;;;5074575;28;20194;-49
2021/12/02 11:41:04;;;;;;;2.87;1.00;;;10.30;99.90;;;;;;5074359;28;20167;-49
2021/12/02 11:43:35;;;;;;;2.47;1.27;;;10.70;99.90;;;;;;5074274;28;20167;-45
2021/12/02 11:46:02;;;;;;;2.23;1.30;;;11.10;99.90;;;;;;5074184;28;20193;-48
2021/12/02 11:48:33;;;;;;;1.30;1.00;;;11.20;99.90;;;;;;5074301;28;20253;-46
2021/12/02 11:51:02;;;;;;;1.13;0.90;;;11.20;99.90;;;;;;5074412;28;20178;-46
2021/12/02 11:53:29;;;;;;;2.80;1.20;;;11.10;99.90;;;;;;5074304;28;20174;-45
2021/12/02 11:55:58;;;;;;;1.60;0.93;;;11.00;99.90;;;;;;5073078;28;20514;-46
2021/12/02 11:58:24;;;;;;;1.47;1.00;;;10.90;99.90;;;;;;5074290;28;20649;-45
2021/12/02 12:00:50;;;;;;;1.13;0.70;;;10.80;99.90;;;;;;5072629;28;20167;-48
2021/12/02 12:03:36;;;;;;;1.73;0.90;;;10.70;99.90;;;;;;5073836;28;20174;-54
2021/12/02 12:06:06;;;;;;;0.70;0.67;;;10.70;99.90;;;;;;5074001;28;20178;-48
2021/12/02 12:08:41;;;;;;;0.80;0.80;;;10.80;99.90;;;;;;5074113;28;20177;-48
2021/12/02 12:11:23;;;;;;;1.43;0.70;;;11.00;99.90;;;;;;5073907;28;20177;-48
2021/12/02 12:13:54;;;;;;;3.43;1.03;;;11.30;99.90;;;;;;5074090;28;20182;-49
2021/12/02 12:16:31;;;;;;;1.20;0.90;;;11.60;99.90;;;;;;5073497;28;20194;-48
2021/12/02 12:19:22;;;;;;;1.10;0.90;;;12.20;99.90;;;;;;5073604;28;20170;-51
2021/12/02 12:22:02;;;;;;;1.53;0.73;;;13.00;99.90;;;;;;5073580;28;20171;-52
2021/12/02 12:24:42;;;;;;;0.90;0.90;;;13.80;99.90;;;;;;5073609;28;20183;-50
2021/12/02 12:27:17;;;;;;;1.50;0.83;;;14.60;99.90;;;;;;5073485;28;20167;-54
2021/12/02 12:29:48;;;;;;;1.63;0.80;;;15.20;99.90;;;;;;5073588;28;20216;-49
2021/12/02 12:34:59;;;;;;;1.03;0.87;;;16.40;99.90;;;;;;5073497;28;20186;-49
2021/12/02 12:40:22;;;;;;;0.80;0.60;;;16.30;96.80;;;;;;5073354;28;20204;-46
2021/12/02 12:43:02;;;;;;;2.93;1.00;;;15.70;97.10;;;;;;5070138;28;20197;-47
2021/12/02 12:45:39;;;;;;;1.90;1.10;;;15.00;97.50;;;;;;5072929;28;20219;-51
2021/12/02 12:48:07;;;;;;;1.87;1.00;;;14.40;98.40;;;;;;5073187;28;20178;-53
2021/12/02 12:50:34;;;;;;;4.53;1.00;;;13.80;98.90;;;;;;5073131;28;20174;-48
2021/12/02 12:53:06;;;;;;;1.30;0.90;;;13.20;99.10;;;;;;5073130;28;20236;-48
2021/12/02 12:55:33;;;;;;;0.90;0.73;;;12.70;99.70;;;;;;5071474;28;20251;-51
2021/12/02 12:58:14;;;;;;;5.07;3.07;;;12.20;99.90;;;;;;5072721;28;20249;-51
2021/12/02 13:00:45;;;;;;;0.90;0.80;;;11.70;99.90;;;;;;5071686;28;20261;-52
2021/12/02 13:06:10;;;;;;;1.63;1.00;;;11.10;99.90;;;;;;5064680;28;20612;-45
2021/12/02 13:08:55;;;;;;;2.00;0.80;;;11.00;99.90;;;;;;5067507;28;20552;-48
2021/12/02 13:11:26;;;;;;;0.70;0.70;;;10.90;99.90;;;;;;5069803;28;20202;-53
2021/12/02 13:13:54;;;;;;;2.53;0.90;;;11.10;99.90;;;;;;5070227;28;20265;-46
2021/12/02 13:16:20;;;;;;;1.90;1.10;;;11.20;99.90;;;;;;5071704;28;20237;-45
2021/12/02 13:18:59;;;;;;;1.07;0.90;;;11.10;99.90;;;;;;5066220;28;20189;-48
2021/12/02 13:21:27;;;;;;;1.83;0.67;;;11.00;99.90;;;;;;5070023;28;20264;-47
2021/12/02 13:23:57;;;;;;;0.60;0.60;;;10.80;99.90;;;;;;5071962;28;20684;-45
2021/12/02 13:26:47;;;;;;;1.00;0.90;;;10.60;99.90;;;;;;5061809;28;20194;-46
2021/12/02 13:29:20;;;;;;;1.40;1.20;;;10.40;99.90;;;;;;5070115;28;20668;-52
2021/12/02 13:32:10;;;;;;;0.63;0.63;;;11.40;99.90;;;;;;5069256;28;20194;-48
2021/12/02 13:34:37;;;;;;;0.73;0.73;;;10.10;99.90;;;;;;5070327;28;20206;-48
2021/12/02 13:37:09;;;;;;;0.63;0.60;;;9.90;99.90;;;;;;5071990;28;20534;-50
2021/12/02 13:39:36;;;;;;;1.53;0.87;;;9.90;99.90;;;;;;5072135;28;20560;-44